Time;durP1;ratioP1;P1;durP2;ratioP2;P2;SDS_P1;SDS_P2;PMS_P1;PMS_P2;Temp;Humidity;BMP_temperature;BMP_pressure;BME280_temperature;BME280_humidity;BME280_pressure;Samples;Min_cycle;Max_cycle;Signal;HPM_P1;HPM_P2
2023/07/28 00:01:10;;;;;;;2.60;1.63;;;;;;;-145.69;86.56;52076.03;5094826;28;20570;-83
2023/07/28 00:03:37;;;;;;;2.85;1.90;;;;;;;-145.69;85.67;52099.81;5094385;28;20221;-83
2023/07/28 00:06:06;;;;;;;2.60;1.95;;;;;;;-145.69;86.56;52080.00;5094310;28;20622;-84
2023/07/28 00:08:32;;;;;;;4.55;2.10;;;;;;;-145.69;86.56;52097.84;5094145;28;20198;-84
2023/07/28 00:11:05;;;;;;;3.15;2.00;;;;;;;-145.69;87.24;52119.63;5094423;28;20198;-84
2023/07/28 00:13:33;;;;;;;3.75;2.33;;;;;;;-145.69;86.90;52115.66;5094389;28;20198;-83
2023/07/28 00:16:07;;;;;;;3.38;2.03;;;;;;;-145.69;86.95;52083.97;5077383;28;20197;-84
2023/07/28 00:18:37;;;;;;;2.33;1.95;;;;;;;-145.69;87.42;52087.94;5074371;28;20201;-83
2023/07/28 00:21:06;;;;;;;4.93;2.20;;;;;;;-145.69;87.47;52103.78;5085636;28;20199;-83
2023/07/28 00:23:40;;;;;;;4.60;2.10;;;;;;;-145.69;86.89;52072.09;5094337;28;20236;-83
2023/07/28 00:26:07;;;;;;;3.22;2.38;;;;;;;-145.69;89.15;52113.66;5094373;28;20208;-84
2023/07/28 00:28:33;;;;;;;5.25;1.90;;;;;;;-145.69;88.62;52125.56;5094050;28;20198;-84
2023/07/28 00:31:00;;;;;;;2.90;2.10;;;;;;;-145.69;88.02;52111.69;5094233;28;20201;-84
2023/07/28 00:33:30;;;;;;;5.07;1.83;;;;;;;-145.69;89.02;52123.56;5094286;28;20206;-84
2023/07/28 00:35:56;;;;;;;6.72;2.40;;;;;;;-145.69;88.78;52121.59;5094173;28;20320;-84
2023/07/28 00:38:25;;;;;;;7.30;2.45;;;;;;;-145.69;89.35;52135.47;5092718;28;20201;-84
2023/07/28 00:40:54;;;;;;;5.03;1.90;;;;;;;-145.69;88.96;52097.84;5093714;28;20213;-84
2023/07/28 00:43:20;;;;;;;2.78;2.13;;;;;;;-145.69;88.99;52131.50;5093818;28;20252;-83
2023/07/28 00:45:47;;;;;;;2.22;1.77;;;;;;;-145.69;88.60;52101.78;5093554;28;20205;-83
2023/07/28 00:48:15;;;;;;;2.35;2.03;;;;;;;-145.69;89.46;52121.59;5093616;28;20201;-84
2023/07/28 00:50:59;;;;;;;3.47;2.05;;;;;;;-145.69;89.21;52115.66;5093808;28;20293;-84
2023/07/28 00:53:34;;;;;;;5.93;2.42;;;;;;;-145.69;88.07;52131.50;5093594;28;20691;-83
2023/07/28 00:56:02;;;;;;;5.93;2.40;;;;;;;-145.69;88.60;52099.81;5093697;28;20198;-84
2023/07/28 00:58:29;;;;;;;4.35;2.33;;;;;;;-145.69;89.33;52119.63;5093428;28;20719;-84
2023/07/28 01:00:55;;;;;;;4.18;2.38;;;;;;;-145.69;90.32;52135.47;5093557;28;20198;-84
2023/07/28 01:03:23;;;;;;;4.40;2.30;;;;;;;-145.69;90.06;52115.66;5093479;28;20233;-84
2023/07/28 01:06:01;;;;;;;3.15;2.30;;;;;;;-145.69;88.40;52085.94;5093704;28;20676;-84
2023/07/28 01:08:33;;;;;;;4.50;1.98;;;;;;;-145.69;89.34;52119.63;5093720;28;20189;-83
2023/07/28 01:11:19;;;;;;;4.70;2.70;;;;;;;-145.69;87.69;52083.97;5084724;28;20198;-84
2023/07/28 01:13:47;;;;;;;4.88;2.35;;;;;;;-145.69;90.04;52129.50;5092491;28;20205;-83
2023/07/28 01:16:15;;;;;;;3.28;2.30;;;;;;;-145.69;89.33;52109.72;5093219;28;20194;-83
2023/07/28 01:18:44;;;;;;;6.38;2.60;;;;;;;-145.69;89.39;52139.41;5074302;28;20199;-83
2023/07/28 01:21:22;;;;;;;2.80;2.38;;;;;;;-145.69;89.33;52109.72;5092943;28;20193;-84
2023/07/28 01:23:56;;;;;;;8.68;2.40;;;;;;;-145.69;89.12;52135.47;5093249;28;20704;-84
2023/07/28 01:26:32;;;;;;;6.30;2.38;;;;;;;-145.69;89.39;52099.81;5093234;28;20242;-84
2023/07/28 01:29:00;;;;;;;11.88;2.47;;;;;;;-145.69;89.90;52107.72;5093377;28;20296;-84
2023/07/28 01:31:26;;;;;;;3.60;2.40;;;;;;;-145.69;89.45;52145.34;5093271;28;20206;-84
2023/07/28 01:33:53;;;;;;;3.25;2.15;;;;;;;-145.69;90.24;52121.59;5092998;28;20653;-84
2023/07/28 01:36:19;;;;;;;3.60;2.33;;;;;;;-145.69;90.69;52101.78;5093182;28;20204;-84
2023/07/28 01:38:46;;;;;;;7.35;2.60;;;;;;;-145.69;89.77;52127.53;5092597;28;20197;-83
2023/07/28 01:41:15;;;;;;;5.65;2.72;;;;;;;-145.69;89.08;52151.28;5093093;28;20224;-83
2023/07/28 01:43:43;;;;;;;7.47;2.65;;;;;;;-145.69;89.50;52129.50;5092898;28;20677;-83
2023/07/28 01:46:09;;;;;;;3.97;2.53;;;;;;;-145.69;88.72;52091.88;5092523;28;20201;-83
2023/07/28 01:48:39;;;;;;;4.90;2.47;;;;;;;-145.69;89.27;52080.00;5092657;28;20196;-84
2023/07/28 01:51:05;;;;;;;4.15;2.38;;;;;;;-145.69;87.63;52121.59;5092667;28;20281;-83
2023/07/28 01:53:32;;;;;;;3.08;2.28;;;;;;;-145.69;86.17;52107.72;5092901;28;20229;-83
2023/07/28 01:56:00;;;;;;;4.85;2.55;;;;;;;-145.69;84.21;52127.53;5093012;28;20226;-83
2023/07/28 01:58:27;;;;;;;3.83;2.50;;;;;;;-145.69;83.92;52107.72;5094058;28;20205;-83
2023/07/28 02:00:55;;;;;;;3.53;2.47;;;;;;;-145.69;84.24;52127.53;5097170;28;20208;-83
2023/07/28 02:03:21;;;;;;;4.95;2.47;;;;;;;-145.69;84.41;52103.78;5097065;28;20283;-83
2023/07/28 02:05:48;;;;;;;4.50;2.45;;;;;;;-145.69;84.38;52125.56;5096714;28;20581;-83
2023/07/28 02:08:17;;;;;;;2.70;2.05;;;;;;;-145.69;83.96;52085.94;5096759;28;20200;-84
2023/07/28 02:10:47;;;;;;;3.85;2.45;;;;;;;-145.69;85.27;52107.72;5097143;28;20201;-84
2023/07/28 02:13:13;;;;;;;5.47;2.15;;;;;;;-145.69;87.80;52099.81;5096711;28;20584;-83
2023/07/28 02:15:42;;;;;;;4.03;2.25;;;;;;;-145.69;86.41;52115.66;5096406;28;20226;-83
2023/07/28 02:18:10;;;;;;;4.07;2.45;;;;;;;-145.69;88.32;52119.63;5090327;28;20202;-84
2023/07/28 02:20:41;;;;;;;3.30;2.42;;;;;;;-145.69;90.32;52161.19;5096747;28;20209;-84
2023/07/28 02:23:07;;;;;;;4.53;2.78;;;;;;;-145.69;90.67;52129.50;5096440;28;20240;-84
2023/07/28 02:25:35;;;;;;;5.22;2.95;;;;;;;-145.69;90.16;52107.72;5096714;28;20226;-83
2023/07/28 02:28:02;;;;;;;8.38;2.53;;;;;;;-145.69;90.11;52129.50;5096184;28;20638;-84
2023/07/28 02:30:28;;;;;;;6.85;2.65;;;;;;;-145.69;89.37;52135.47;5096505;28;20245;-84
2023/07/28 02:32:55;;;;;;;3.92;2.45;;;;;;;-145.69;89.36;52133.47;5096485;28;20660;-84
2023/07/28 02:35:29;;;;;;;6.10;2.38;;;;;;;-145.69;89.41;52119.63;5096680;28;20201;-82
2023/07/28 02:37:58;;;;;;;3.63;2.67;;;;;;;-145.69;93.59;52115.66;5095187;28;20870;-83
2023/07/28 02:40:25;;;;;;;3.78;2.78;;;;;;;-145.69;91.92;52099.81;5096284;28;20210;-84
2023/07/28 02:42:54;;;;;;;3.22;2.40;;;;;;;-145.69;90.86;52101.78;5096151;28;20205;-83
2023/07/28 02:45:20;;;;;;;6.68;2.80;;;;;;;-145.69;90.16;52099.81;5096056;28;20680;-84
2023/07/28 02:47:47;;;;;;;3.78;2.33;;;;;;;-145.69;91.30;52121.59;5096207;28;20190;-84
2023/07/28 02:50:15;;;;;;;5.25;2.88;;;;;;;-145.69;91.52;52139.41;5096165;28;20202;-84
2023/07/28 02:52:43;;;;;;;6.45;2.80;;;;;;;-145.69;91.16;52123.56;5096145;28;20647;-84
2023/07/28 02:55:15;;;;;;;3.75;2.20;;;;;;;-145.69;90.64;52123.56;5096045;28;20198;-83
2023/07/28 02:57:41;;;;;;;3.80;2.67;;;;;;;-145.69;91.80;52129.50;5095627;28;20198;-83
2023/07/28 03:00:10;;;;;;;6.93;2.63;;;;;;;-145.69;91.74;52095.84;5095981;28;20201;-84
2023/07/28 03:02:37;;;;;;;2.92;2.08;;;;;;;-145.69;91.29;52127.53;5095855;28;20241;-83
2023/07/28 03:05:03;;;;;;;6.47;2.70;;;;;;;-145.69;91.23;52095.84;5095729;28;20320;-84
2023/07/28 03:07:31;;;;;;;3.47;2.20;;;;;;;-145.69;90.83;52111.69;5095663;28;20201;-84
2023/07/28 03:10:01;;;;;;;7.40;2.60;;;;;;;-145.69;90.37;52076.03;5095725;28;20238;-84
2023/07/28 03:12:30;;;;;;;3.60;2.45;;;;;;;-145.69;90.30;52109.72;5095622;28;20202;-84
2023/07/28 03:14:57;;;;;;;3.63;2.20;;;;;;;-145.69;90.05;52093.88;5095800;28;20226;-84
2023/07/28 03:17:26;;;;;;;3.58;2.38;;;;;;;-145.69;90.06;52099.81;5095794;28;20256;-83
2023/07/28 03:19:55;;;;;;;8.77;2.35;;;;;;;-145.69;89.66;52121.59;5095603;28;20204;-83
2023/07/28 03:22:24;;;;;;;4.88;2.67;;;;;;;-145.69;89.56;52091.88;5095605;28;20206;-83
2023/07/28 03:24:50;;;;;;;4.25;2.40;;;;;;;-145.69;89.53;52103.78;5094671;28;20222;-84
2023/07/28 03:27:18;;;;;;;3.70;2.50;;;;;;;-145.69;90.23;52103.78;5095474;28;20190;-84
2023/07/28 03:29:45;;;;;;;3.88;2.00;;;;;;;-145.69;89.53;52125.56;5095528;28;20202;-84
2023/07/28 03:32:12;;;;;;;4.68;2.38;;;;;;;-145.69;89.86;52111.69;5095520;28;20194;-84
2023/07/28 03:34:39;;;;;;;4.38;2.63;;;;;;;-145.69;90.52;52119.63;5095193;28;20197;-84
2023/07/28 03:37:07;;;;;;;5.32;2.83;;;;;;;-145.69;90.45;52113.66;5095111;28;20289;-83
2023/07/28 03:39:36;;;;;;;4.18;2.60;;;;;;;-145.69;90.33;52123.56;5094664;28;20199;-83
2023/07/28 03:42:03;;;;;;;4.72;2.58;;;;;;;-145.69;90.23;52083.97;5095072;28;20657;-84
2023/07/28 03:44:33;;;;;;;4.13;2.47;;;;;;;-145.69;91.74;52115.66;5094950;28;20214;-83
2023/07/28 03:47:02;;;;;;;3.53;2.35;;;;;;;-145.69;92.20;52117.63;5095168;28;20561;-84
2023/07/28 03:49:32;;;;;;;3.72;2.70;;;;;;;-145.69;90.81;52135.47;5094492;28;20282;-84
2023/07/28 03:52:01;;;;;;;6.65;2.70;;;;;;;-145.69;90.30;52119.63;5094041;28;20194;-83
2023/07/28 03:54:27;;;;;;;4.13;2.65;;;;;;;-145.69;90.96;52157.25;5095056;28;20206;-84
2023/07/28 03:56:55;;;;;;;3.50;2.67;;;;;;;-145.69;91.13;52141.41;5094872;28;20206;-84
2023/07/28 03:59:22;;;;;;;3.70;2.80;;;;;;;-145.69;89.88;52111.69;5094684;28;20623;-84
2023/07/28 04:01:53;;;;;;;3.75;2.75;;;;;;;-145.69;89.79;52153.28;5094769;28;20194;-84
2023/07/28 04:04:20;;;;;;;3.67;2.65;;;;;;;-145.69;90.71;52115.66;5094594;28;20202;-84
2023/07/28 04:06:50;;;;;;;5.13;2.95;;;;;;;-145.69;90.18;52107.72;5094566;28;20210;-82
2023/07/28 04:09:17;;;;;;;5.28;3.00;;;;;;;-145.69;87.22;52113.66;5094565;28;20198;-83
2023/07/28 04:11:46;;;;;;;5.88;3.20;;;;;;;-145.69;88.33;52103.78;5094510;28;20657;-83
2023/07/28 04:14:14;;;;;;;4.15;2.80;;;;;;;-145.69;88.85;52131.50;5094188;28;20700;-83
2023/07/28 04:16:40;;;;;;;7.18;2.92;;;;;;;-145.69;87.55;52115.66;5074937;28;20595;-83
2023/07/28 04:19:11;;;;;;;4.43;2.75;;;;;;;-145.69;87.02;52091.88;5091038;28;20197;-83
2023/07/28 04:21:40;;;;;;;7.57;2.80;;;;;;;-145.69;86.37;52099.81;5092583;28;20676;-83
2023/07/28 04:24:10;;;;;;;3.97;2.80;;;;;;;-145.69;86.66;52103.78;5094238;28;20645;-83
2023/07/28 04:26:36;;;;;;;4.68;3.38;;;;;;;-145.69;88.27;52115.66;5094216;28;20576;-84
2023/07/28 04:29:05;;;;;;;6.07;3.20;;;;;;;-145.69;87.39;52125.56;5094003;28;20198;-84
2023/07/28 04:31:32;;;;;;;5.72;2.88;;;;;;;-145.69;87.12;52115.66;5094111;28;20732;-83
2023/07/28 04:33:58;;;;;;;4.32;2.80;;;;;;;-145.69;86.73;52119.63;5094231;28;20209;-84
2023/07/28 04:36:26;;;;;;;7.15;2.90;;;;;;;-145.69;86.55;52103.78;5092616;28;20197;-84
2023/07/28 04:38:53;;;;;;;4.00;2.70;;;;;;;-145.69;86.64;52105.75;5092785;28;20201;-85
2023/07/28 04:41:19;;;;;;;4.63;2.70;;;;;;;-145.69;87.41;52115.66;5093938;28;20213;-85
2023/07/28 04:43:46;;;;;;;8.52;3.42;;;;;;;-145.69;86.76;52111.69;5094749;28;20202;-84
2023/07/28 04:46:15;;;;;;;7.70;3.08;;;;;;;-145.69;85.54;52066.16;5093498;28;20218;-84
2023/07/28 04:48:41;;;;;;;7.22;2.70;;;;;;;-145.69;86.16;52093.88;5094110;28;20209;-84
2023/07/28 04:51:08;;;;;;;8.75;2.80;;;;;;;-145.69;84.76;52107.72;5093741;28;20201;-83
2023/07/28 04:53:38;;;;;;;6.55;2.47;;;;;;;-145.69;83.54;52064.16;5093967;28;20222;-83
2023/07/28 04:56:05;;;;;;;4.60;2.50;;;;;;;-145.69;84.81;52087.94;5093523;28;20226;-83
2023/07/28 04:58:33;;;;;;;4.57;2.78;;;;;;;-145.69;84.04;52082.00;5093711;28;20201;-84
2023/07/28 05:01:02;;;;;;;8.07;2.60;;;;;;;-145.69;83.62;52115.66;5093817;28;20209;-83
2023/07/28 05:03:40;;;;;;;4.90;2.60;;;;;;;-145.69;82.66;52091.88;5093585;28;20197;-83
2023/07/28 05:06:06;;;;;;;3.97;2.55;;;;;;;-145.69;82.35;52095.84;5093327;28;20217;-83
2023/07/28 05:08:33;;;;;;;3.15;2.30;;;;;;;-145.69;84.37;52078.03;5093640;28;20281;-84
2023/07/28 05:11:04;;;;;;;4.13;2.60;;;;;;;-145.69;84.77;52083.97;5093454;28;20202;-84
2023/07/28 05:13:32;;;;;;;4.43;2.20;;;;;;;-145.69;85.57;52099.81;5093702;28;20208;-83
2023/07/28 05:15:59;;;;;;;5.03;2.72;;;;;;;-145.69;84.16;52056.25;5093241;28;20202;-84
2023/07/28 05:18:28;;;;;;;3.28;2.42;;;;;;;-145.69;84.43;52076.03;5093655;28;20599;-84
2023/07/28 05:21:00;;;;;;;2.47;2.10;;;;;;;-145.69;82.28;52070.09;5093497;28;20224;-85
2023/07/28 05:23:26;;;;;;;4.53;2.10;;;;;;;-145.69;80.94;52048.31;5092931;28;20201;-83
2023/07/28 05:25:53;;;;;;;5.15;2.15;;;;;;;-145.69;82.26;52091.88;5092703;28;20226;-84
2023/07/28 05:28:24;;;;;;;3.22;2.25;;;;;;;-145.69;82.42;52068.13;5093207;28;20198;-84
2023/07/28 05:30:51;;;;;;;5.50;2.28;;;;;;;-145.69;81.52;52042.38;5093668;28;20198;-85
2023/07/28 05:33:17;;;;;;;3.50;1.67;;;;;;;-145.69;80.90;52042.38;5091989;28;20198;-85
2023/07/28 05:35:44;;;;;;;2.75;1.90;;;;;;;-145.69;80.13;52028.53;5073015;28;20857;-85
2023/07/28 05:38:12;;;;;;;3.45;2.20;;;;;;;-145.69;80.05;52048.31;5072890;28;20206;-84
2023/07/28 05:40:38;;;;;;;3.03;2.20;;;;;;;-145.69;79.27;52010.69;5073197;28;20203;-84
2023/07/28 05:43:06;;;;;;;3.03;2.28;;;;;;;-145.69;78.82;52032.47;5075591;28;20206;-84
2023/07/28 05:45:34;;;;;;;3.83;2.10;;;;;;;-145.69;78.50;52020.59;5093086;28;20225;-84
2023/07/28 05:48:04;;;;;;;4.32;2.28;;;;;;;-145.69;77.74;52068.13;5093014;28;20208;-84
2023/07/28 05:50:34;;;;;;;3.83;2.17;;;;;;;-145.69;78.36;52048.31;5093298;28;20213;-84
2023/07/28 05:53:00;;;;;;;6.97;2.00;;;;;;;-145.69;77.99;52040.41;5092274;28;20205;-84
2023/07/28 05:55:27;;;;;;;3.75;2.28;;;;;;;-145.69;78.13;52062.19;5093011;28;20205;-84
2023/07/28 05:57:56;;;;;;;4.57;2.10;;;;;;;-145.69;75.51;52072.09;5092928;28;20194;-84
2023/07/28 06:00:26;;;;;;;3.58;2.05;;;;;;;-145.69;75.99;52022.59;5092981;28;20220;-84
2023/07/28 06:03:08;;;;;;;3.15;1.88;;;;;;;-145.69;76.00;52056.25;5092564;28;20198;-85
2023/07/28 06:05:35;;;;;;;3.60;2.10;;;;;;;-145.69;75.44;52036.44;5092948;28;20320;-83
2023/07/28 06:08:02;;;;;;;3.03;1.95;;;;;;;-145.69;76.85;52056.25;5092919;28;20661;-84
2023/07/28 06:10:30;;;;;;;2.28;1.73;;;;;;;-145.69;76.43;52044.38;5091344;28;20194;-85
2023/07/28 06:12:56;;;;;;;2.72;1.90;;;;;;;-145.69;76.83;52068.13;5092463;28;20194;-84
2023/07/28 06:15:23;;;;;;;3.50;2.10;;;;;;;-145.69;77.41;52028.53;5094130;28;20237;-84
2023/07/28 06:17:53;;;;;;;5.18;2.17;;;;;;;-145.69;75.97;52030.50;5092410;28;20722;-84
2023/07/28 06:20:21;;;;;;;6.05;2.08;;;;;;;-145.69;76.34;52036.44;5091822;28;20198;-85
2023/07/28 06:25:30;;;;;;;3.40;1.85;;;;;;;-145.69;75.43;52036.44;5093478;28;20696;-85
2023/07/28 06:28:02;;;;;;;4.72;2.10;;;;;;;-145.69;74.91;52020.59;5093958;28;20198;-85
2023/07/28 06:30:30;;;;;;;4.05;2.08;;;;;;;-145.69;76.10;52004.75;5093254;28;20656;-85
2023/07/28 06:32:59;;;;;;;3.28;1.98;;;;;;;-145.69;76.29;52024.56;5093143;28;20191;-84
2023/07/28 06:35:29;;;;;;;3.15;1.90;;;;;;;-145.69;75.60;51996.84;5093916;28;20288;-85
2023/07/28 06:37:56;;;;;;;3.55;2.13;;;;;;;-145.69;76.46;51990.91;5094207;28;20198;-85
2023/07/28 06:40:22;;;;;;;2.65;1.88;;;;;;;-145.69;75.38;52016.66;5093093;28;20213;-85
2023/07/28 06:42:51;;;;;;;2.80;1.88;;;;;;;-145.69;74.45;52008.72;5092559;28;20280;-85
2023/07/28 06:45:20;;;;;;;2.95;2.00;;;;;;;-145.69;73.72;51973.06;5095620;28;20222;-85
2023/07/28 06:47:47;;;;;;;3.50;2.00;;;;;;;-145.69;72.83;52026.53;5096716;28;20609;-85
2023/07/28 06:50:16;;;;;;;3.50;1.95;;;;;;;-145.69;70.95;51998.81;5098272;28;20204;-85
2023/07/28 06:52:44;;;;;;;2.92;1.67;;;;;;;-145.69;65.96;51998.81;5100578;28;20241;-85
2023/07/28 06:55:12;;;;;;;2.38;1.60;;;;;;;-145.69;66.05;51979.03;5096722;28;20754;-82
2023/07/28 06:57:39;;;;;;;2.15;1.50;;;;;;;-145.69;65.93;52000.81;5098391;28;20202;-84
2023/07/28 07:00:09;;;;;;;2.70;1.55;;;;;;;-145.69;63.05;51965.16;5100190;28;20232;-86
2023/07/28 07:02:35;;;;;;;2.55;1.60;;;;;;;-145.69;60.84;51965.16;5097670;28;20261;-86
2023/07/28 07:05:02;;;;;;;2.05;1.58;;;;;;;-145.69;58.56;51971.09;5099702;28;20237;-83
2023/07/28 07:07:28;;;;;;;3.13;1.85;;;;;;;-145.69;56.91;51965.16;5099633;28;20285;-85
2023/07/28 07:09:59;;;;;;;1.85;1.40;;;;;;;-145.69;54.52;51957.25;5098728;28;20198;-85
2023/07/28 07:12:29;;;;;;;2.70;1.60;;;;;;;-145.69;54.57;51925.56;5098705;28;20195;-85
2023/07/28 07:14:58;;;;;;;3.60;1.73;;;;;;;-145.69;52.84;51961.19;5098416;28;20325;-85
2023/07/28 07:17:28;;;;;;;2.80;1.65;;;;;;;-145.69;52.08;51953.28;5099476;28;20202;-84
2023/07/28 07:19:56;;;;;;;2.33;1.42;;;;;;;-145.69;53.07;51981.00;5099788;28;20209;-86
2023/07/28 07:22:23;;;;;;;2.85;1.45;;;;;;;-145.69;52.67;51984.97;5098118;28;20665;-86
2023/07/28 07:24:50;;;;;;;2.17;1.70;;;;;;;-145.69;51.16;51947.34;5096951;28;20201;-85
2023/07/28 07:27:26;;;;;;;2.70;1.60;;;;;;;-145.69;50.34;51947.34;5097460;28;20320;-83
2023/07/28 07:29:53;;;;;;;2.85;1.80;;;;;;;-145.69;50.26;51975.06;5091984;28;20212;-86
2023/07/28 07:32:19;;;;;;;2.85;1.63;;;;;;;-145.69;50.47;51937.44;5098133;28;20194;-85
2023/07/28 07:34:48;;;;;;;3.95;1.90;;;;;;;-145.69;50.35;51937.44;5099945;28;20509;-85
2023/07/28 07:37:17;;;;;;;3.63;1.20;;;;;;;-145.69;48.23;51937.44;5096949;28;20228;-84
2023/07/28 07:39:43;;;;;;;2.22;1.58;;;;;;;-145.69;48.56;51935.47;5096846;28;20280;-85
2023/07/28 07:42:16;;;;;;;3.60;1.80;;;;;;;-145.69;48.01;51977.03;5097050;28;20638;-84
2023/07/28 07:44:44;;;;;;;3.65;1.73;;;;;;;-145.69;49.58;51903.78;5098149;28;20252;-84
2023/07/28 07:47:15;;;;;;;2.75;1.60;;;;;;;-145.69;46.94;51943.38;5096181;28;20233;-84
2023/07/28 07:49:42;;;;;;;2.08;1.40;;;;;;;-145.69;48.34;51969.13;5095652;28;20206;-83
2023/07/28 07:52:11;;;;;;;3.28;1.75;;;;;;;-145.69;47.20;51923.56;5095922;28;20669;-85
2023/07/28 07:54:41;;;;;;;2.22;1.70;;;;;;;-145.69;48.39;51957.25;5098033;28;20205;-85
2023/07/28 07:57:07;;;;;;;3.00;1.65;;;;;;;-145.69;48.64;51909.72;5096518;28;20204;-84
2023/07/28 07:59:36;;;;;;;3.03;1.95;;;;;;;-145.69;47.86;51937.44;5097327;28;20202;-85
2023/07/28 08:02:09;;;;;;;8.02;2.08;;;;;;;-145.69;46.18;51913.69;5097378;28;20206;-83
2023/07/28 08:04:36;;;;;;;3.10;1.80;;;;;;;-145.69;45.71;51923.56;5096215;28;20209;-82
2023/07/28 08:07:04;;;;;;;4.65;1.65;;;;;;;-145.69;45.67;51889.91;5096536;28;20763;-85
2023/07/28 08:09:34;;;;;;;6.30;1.60;;;;;;;-145.69;44.58;51941.41;5095364;28;20202;-85
2023/07/28 08:12:01;;;;;;;3.88;1.50;;;;;;;-145.69;44.57;51891.88;5096112;28;20285;-85
2023/07/28 08:14:29;;;;;;;2.85;1.48;;;;;;;-145.69;44.57;51901.78;5095842;28;20265;-83
2023/07/28 08:16:56;;;;;;;2.72;1.60;;;;;;;-145.69;44.75;51882.00;5098001;28;20680;-80
2023/07/28 08:19:24;;;;;;;2.80;1.55;;;;;;;-145.69;45.67;51891.88;5097715;28;20224;-82
2023/07/28 08:21:57;;;;;;;2.22;1.60;;;;;;;-145.69;45.93;51911.69;5076423;28;20201;-83
2023/07/28 08:24:23;;;;;;;2.65;1.60;;;;;;;-145.69;43.79;51885.94;5076705;28;20207;-83
2023/07/28 08:26:50;;;;;;;2.38;1.55;;;;;;;-145.69;43.36;51854.28;5092398;28;20226;-82
2023/07/28 08:29:16;;;;;;;3.13;1.70;;;;;;;-145.69;42.69;51854.28;5098464;28;20583;-83
2023/07/28 08:31:45;;;;;;;3.30;1.50;;;;;;;-145.69;41.08;51858.22;5097958;28;20206;-83
2023/07/28 08:34:11;;;;;;;2.95;1.55;;;;;;;-145.69;40.67;51852.28;5098813;28;20197;-82
2023/07/28 08:36:39;;;;;;;5.03;1.63;;;;;;;-145.69;41.72;51883.97;5098147;28;20201;-83
2023/07/28 08:39:09;;;;;;;3.00;1.85;;;;;;;-145.69;41.70;51874.06;5095244;28;20202;-83
2023/07/28 08:41:35;;;;;;;3.58;1.83;;;;;;;-145.69;41.39;51878.03;5096913;28;20269;-82
2023/07/28 08:44:03;;;;;;;6.50;1.60;;;;;;;-145.69;40.34;51844.38;5095830;28;20198;-82
2023/07/28 08:46:34;;;;;;;3.83;1.92;;;;;;;-145.69;41.54;51874.06;5097827;28;20796;-82
2023/07/28 08:49:05;;;;;;;2.97;1.70;;;;;;;-145.69;39.67;51860.22;5098258;28;20220;-85
2023/07/28 08:51:32;;;;;;;2.88;1.60;;;;;;;-145.69;39.60;51830.50;5097724;28;20206;-83
2023/07/28 08:54:00;;;;;;;2.92;1.83;;;;;;;-145.69;38.47;51812.69;5097719;28;20198;-84
2023/07/28 08:56:27;;;;;;;2.83;1.35;;;;;;;-145.69;39.75;51838.44;5096211;28;20496;-80
2023/07/28 08:58:59;;;;;;;5.38;1.85;;;;;;;-145.69;38.65;51806.75;5095020;28;20202;-82
2023/07/28 09:01:26;;;;;;;3.35;1.75;;;;;;;-145.69;38.65;51820.59;5096665;28;20244;-85
2023/07/28 09:03:53;;;;;;;3.42;1.70;;;;;;;-145.69;38.50;51806.75;5094231;28;20240;-84
2023/07/28 09:06:29;;;;;;;2.10;1.40;;;;;;;-145.69;38.93;51820.59;5095786;28;20569;-84
2023/07/28 09:08:59;;;;;;;5.03;2.00;;;;;;;-145.69;38.18;51826.56;5095656;28;20240;-84
2023/07/28 09:11:29;;;;;;;3.05;1.65;;;;;;;-145.69;39.29;51846.34;5097123;28;20198;-83
2023/07/28 09:13:57;;;;;;;2.92;1.90;;;;;;;-145.69;39.24;51858.22;5097252;28;20230;-82
2023/07/28 09:16:25;;;;;;;2.90;1.80;;;;;;;-145.69;38.01;51828.53;5095661;28;20210;-82
2023/07/28 09:18:52;;;;;;;2.55;1.65;;;;;;;-145.69;37.50;51848.34;5095143;28;20229;-85
2023/07/28 09:21:21;;;;;;;2.38;1.48;;;;;;;-145.69;39.53;51850.31;5095803;28;20288;-84
2023/07/28 09:23:48;;;;;;;3.78;1.45;;;;;;;-145.69;39.29;51822.59;5094897;28;20194;-83
2023/07/28 09:26:16;;;;;;;2.00;1.50;;;;;;;-145.69;38.01;51822.59;5095403;28;20237;-83
2023/07/28 09:28:43;;;;;;;2.60;1.67;;;;;;;-145.69;38.38;51824.56;5094658;28;20564;-81
2023/07/28 09:31:12;;;;;;;3.13;1.58;;;;;;;-145.69;37.00;51846.34;5095646;28;20261;-85
2023/07/28 09:33:46;;;;;;;3.35;1.75;;;;;;;-145.69;36.54;51828.53;5094719;28;20202;-85
2023/07/28 09:36:15;;;;;;;2.78;1.42;;;;;;;-145.69;36.98;51806.75;5095143;28;20201;-84
2023/07/28 09:38:42;;;;;;;2.22;1.60;;;;;;;-145.69;37.28;51834.47;5094779;28;20205;-83
2023/07/28 09:41:11;;;;;;;2.42;1.50;;;;;;;-145.69;36.81;51822.59;5095180;28;20197;-82
2023/07/28 09:43:49;;;;;;;2.10;1.48;;;;;;;-145.69;36.86;51830.50;5096180;28;20205;-84
2023/07/28 09:46:21;;;;;;;2.47;1.70;;;;;;;-145.69;37.24;51838.44;5095060;28;20221;-85
2023/07/28 09:48:53;;;;;;;4.13;1.90;;;;;;;-145.69;36.83;51838.44;5096850;28;20668;-83
2023/07/28 09:51:27;;;;;;;2.38;1.60;;;;;;;-145.69;36.80;51818.63;5095828;28;20206;-82
2023/07/28 09:53:57;;;;;;;3.05;1.80;;;;;;;-145.69;37.15;51820.59;5096299;28;20198;-83
2023/07/28 09:56:28;;;;;;;2.55;1.63;;;;;;;-145.69;36.77;51798.81;5094444;28;20657;-82
2023/07/28 09:59:00;;;;;;;7.53;1.58;;;;;;;-145.69;37.25;51822.59;5098195;28;20198;-82
2023/07/28 10:01:29;;;;;;;2.22;1.35;;;;;;;-145.69;36.69;51856.25;5095629;28;20671;-80
2023/07/28 10:03:59;;;;;;;4.40;1.80;;;;;;;-145.69;36.26;51806.75;5094652;28;20289;-83
2023/07/28 10:06:29;;;;;;;2.30;1.50;;;;;;;-145.69;36.80;51818.63;5093660;28;20233;-83
2023/07/28 10:08:59;;;;;;;2.78;1.60;;;;;;;-145.69;36.73;51838.44;5093825;28;20202;-82
2023/07/28 10:11:27;;;;;;;1.90;1.30;;;;;;;-145.69;37.14;51814.66;5094180;28;20207;-83
2023/07/28 10:13:56;;;;;;;3.20;1.90;;;;;;;-145.69;37.27;51802.78;5090655;28;20240;-83
2023/07/28 10:16:39;;;;;;;3.25;1.52;;;;;;;-145.69;37.15;51822.59;5093912;28;20198;-84
2023/07/28 10:19:08;;;;;;;5.10;1.60;;;;;;;-145.69;37.83;51850.31;5094263;28;20190;-85
2023/07/28 10:21:42;;;;;;;2.30;1.58;;;;;;;-145.69;38.01;51818.63;5098303;28;20194;-82
2023/07/28 10:24:08;;;;;;;4.75;1.90;;;;;;;-145.69;37.04;51816.66;5097931;28;20278;-83
2023/07/28 10:26:45;;;;;;;1.90;1.38;;;;;;;-145.69;37.34;51802.78;5097989;28;20221;-83
2023/07/28 10:29:15;;;;;;;2.92;1.70;;;;;;;-145.69;37.17;51828.53;5098997;28;20645;-83
2023/07/28 10:31:53;;;;;;;1.70;1.30;;;;;;;-145.69;36.11;51792.88;5098884;28;20778;-85
2023/07/28 10:34:25;;;;;;;2.15;1.35;;;;;;;-145.69;35.44;51792.88;5098088;28;20212;-85
2023/07/28 10:37:01;;;;;;;2.13;1.50;;;;;;;-145.69;35.46;51775.06;5097945;28;20297;-84
2023/07/28 10:39:31;;;;;;;2.10;1.52;;;;;;;-145.69;35.24;51790.91;5097779;28;20699;-84
2023/07/28 10:42:06;;;;;;;4.82;1.70;;;;;;;-145.69;35.39;51792.88;5100575;28;20194;-85
2023/07/28 10:44:36;;;;;;;2.83;1.67;;;;;;;-145.69;35.31;51775.06;5102222;28;20208;-83
2023/07/28 10:47:05;;;;;;;3.15;1.67;;;;;;;-145.69;35.11;51786.94;5098280;28;20257;-84
2023/07/28 10:49:34;;;;;;;1.73;1.27;;;;;;;-145.69;34.77;51798.81;5097375;28;20649;-83
2023/07/28 10:52:01;;;;;;;3.45;1.63;;;;;;;-145.69;34.97;51820.59;5097981;28;20266;-85
2023/07/28 10:54:28;;;;;;;3.33;1.80;;;;;;;-145.69;35.53;51790.91;5097968;28;20205;-85
2023/07/28 10:56:55;;;;;;;2.05;1.50;;;;;;;-145.69;35.85;51818.63;5096669;28;20198;-86
2023/07/28 10:59:24;;;;;;;2.80;1.80;;;;;;;-145.69;35.62;51818.63;5098365;28;20289;-83
2023/07/28 11:01:52;;;;;;;1.85;1.30;;;;;;;-145.69;35.13;51810.72;5097680;28;20205;-82
2023/07/28 11:04:24;;;;;;;2.67;1.70;;;;;;;-145.69;35.45;51814.66;5097827;28;20198;-85
2023/07/28 11:06:51;;;;;;;3.92;1.77;;;;;;;-145.69;36.18;51850.31;5096459;28;20256;-86
2023/07/28 11:09:20;;;;;;;2.40;1.60;;;;;;;-145.69;36.31;51854.28;5097319;28;20198;-86
2023/07/28 11:11:52;;;;;;;2.92;1.88;;;;;;;-145.69;36.71;51858.22;5097441;28;20208;-84
2023/07/28 11:14:20;;;;;;;2.53;1.80;;;;;;;-145.69;37.32;51858.22;5096935;28;20234;-84
2023/07/28 11:16:54;;;;;;;3.83;1.80;;;;;;;-145.69;37.09;51893.88;5096160;28;20202;-84
2023/07/28 11:19:24;;;;;;;4.28;2.03;;;;;;;-145.69;38.15;51868.13;5097185;28;20568;-84
2023/07/28 11:21:51;;;;;;;3.53;1.58;;;;;;;-145.69;37.91;51874.06;5096346;28;20202;-85
2023/07/28 11:24:24;;;;;;;3.80;1.98;;;;;;;-145.69;37.80;51866.16;5096741;28;20206;-87
2023/07/28 11:26:51;;;;;;;2.95;1.80;;;;;;;-145.69;38.55;51889.91;5095495;28;20300;-86